Observation data for Plainview on 02/22/2019      Previous  Date  Next       Current Mesonet Observations  Soil Data  Daily Summary Page  Observations in Plain Language
KPVS 220600Z 11005KT 01/M04 A2987 RMK A01 T00091036  RH  073%=      5-min Rain = 0
KPVS 220605Z 10004KT 01/M04 A2987 RMK A01 T00071037  RH  073%=      5-min Rain = 0
KPVS 220610Z 09005KT 01/M04 A2987 RMK A01 T00051038  RH  074%=      5-min Rain = 0
KPVS 220615Z 09005KT 00/M04 A2988 RMK A01 T00041037  RH  075%=      5-min Rain = 0
KPVS 220620Z 09006KT 00/M04 A2988 RMK A01 T00041035  RH  076%=      5-min Rain = 0
KPVS 220625Z 08006KT 00/M04 A2988 RMK A01 T00041035  RH  076%=      5-min Rain = 0
KPVS 220630Z 08005KT 00/M04 A2988 RMK A01 T00021036  RH  077%=      5-min Rain = 0
KPVS 220635Z 09005KT 00/04 A2988 RMK A01 T00-00-36  RH  078%=      5-min Rain = 0
KPVS 220640Z 09005KT 00/03 A2988 RMK A01 T00000-34  RH  079%=      5-min Rain = 0
KPVS 220645Z 09005KT 00/M03 A2988 RMK A01 T00021032  RH  079%=      5-min Rain = 0
KPVS 220650Z 09005KT 00/M03 A2988 RMK A01 T00011032  RH  079%=      5-min Rain = 0
KPVS 220655Z 10005KT 00/M03 A2988 RMK A01 T00021030  RH  080%=      5-min Rain = 0
KPVS 220700Z 09005KT 00/M03 A2988 RMK A01 T00011029  RH  081%=      5-min Rain = 0
KPVS 220705Z 09005KT 00/03 A2988 RMK A01 T00000-29  RH  082%=      5-min Rain = 0
KPVS 220710Z 08004KT 00/03 A2988 RMK A01 T00-00-29  RH  082%=      5-min Rain = 0
KPVS 220715Z 09004KT M00/M03 A2988 RMK A01 T10021030  RH  083%=      5-min Rain = 0
KPVS 220720Z 09004KT M00/M03 A2989 RMK A01 T10031028  RH  084%=      5-min Rain = 0
KPVS 220725Z 08004KT M00/M03 A2989 RMK A01 T10031029  RH  083%=      5-min Rain = 0
KPVS 220730Z 09005KT M01/M03 A2989 RMK A01 T10051029  RH  084%=      5-min Rain = 0
KPVS 220735Z 08004KT M00/M03 A2989 RMK A01 T10041028  RH  085%=      5-min Rain = 0
KPVS 220740Z 08005KT M01/M03 A2989 RMK A01 T10051029  RH  085%=      5-min Rain = 0
KPVS 220745Z 08005KT M01/M03 A2989 RMK A01 T10061029  RH  086%=      5-min Rain = 0
KPVS 220750Z 09005KT M01/M03 A2989 RMK A01 T10051026  RH  087%=      5-min Rain = 0
KPVS 220755Z 10005KT M00/M02 A2989 RMK A01 T10031024  RH  087%=      5-min Rain = 0
KPVS 220800Z 10005KT M00/M02 A299 RMK A01 T10021024  RH  086%=      5-min Rain = 0
KPVS 220805Z 08005KT M00/M03 A2989 RMK A01 T10041025  RH  087%=      5-min Rain = 0
KPVS 220810Z 07005KT M01/M02 A2989 RMK A01 T10051024  RH  088%=      5-min Rain = 0
KPVS 220815Z 07007KT M00/M02 A2989 RMK A01 T10031020  RH  089%=      5-min Rain = 0
KPVS 220820Z 07006KT 00/M02 A2989 RMK A01 T00021017  RH  088%=      5-min Rain = 0
KPVS 220825Z 09003KT 00/M02 A299 RMK A01 T00021018  RH  087%=      5-min Rain = 0
KPVS 220830Z 08005KT M00/M02 A299 RMK A01 T10011021  RH  087%=      5-min Rain = 0
KPVS 220835Z 08003KT M00/M02 A2991 RMK A01 T10041023  RH  088%=      5-min Rain = 0
KPVS 220840Z 08003KT M00/M02 A299 RMK A01 T10041024  RH  088%=      5-min Rain = 0
KPVS 220845Z 08004KT M01/M03 A299 RMK A01 T10071026  RH  088%=      5-min Rain = 0
KPVS 220850Z 08004KT M01/M03 A299 RMK A01 T10081026  RH  089%=      5-min Rain = 0
KPVS 220855Z 08004KT M01/M03 A299 RMK A01 T10091027  RH  089%=      5-min Rain = 0
KPVS 220900Z 06003KT M01/M03 A299 RMK A01 T10111028  RH  089%=      5-min Rain = 0
KPVS 220905Z 05004KT M01/M03 A2991 RMK A01 T10111027  RH  090%=      5-min Rain = 0
KPVS 220910Z 03004KT M01/M03 A2991 RMK A01 T10121028  RH  090%=      5-min Rain = 0
KPVS 220915Z 03004KT M01/M03 A2991 RMK A01 T10131029  RH  090%=      5-min Rain = 0
KPVS 220920Z 05003KT M01/M03 A2991 RMK A01 T10141029  RH  090%=      5-min Rain = 0
KPVS 220925Z 07003KT M01/M03 A299 RMK A01 T10141029  RH  090%=      5-min Rain = 0
KPVS 220930Z 07004KT M02/M03 A299 RMK A01 T10151030  RH  091%=      5-min Rain = 0
KPVS 220935Z 06004KT M02/M03 A299 RMK A01 T10151029  RH  091%=      5-min Rain = 0
KPVS 220940Z 04003KT M02/M03 A299 RMK A01 T10151028  RH  092%=      5-min Rain = 0
KPVS 220945Z 03003KT M01/M03 A299 RMK A01 T10141027  RH  092%=      5-min Rain = 0
KPVS 220950Z 06003KT M01/M03 A299 RMK A01 T10141027  RH  092%=      5-min Rain = 0
KPVS 220955Z 07003KT M02/M03 A299 RMK A01 T10151028  RH  092%=      5-min Rain = 0
KPVS 221000Z 08003KT M02/M03 A299 RMK A01 T10151028  RH  092%=      5-min Rain = 0
KPVS 221005Z 06003KT M01/M03 A299 RMK A01 T10141025  RH  093%=      5-min Rain = 0
KPVS 221010Z 06004KT M01/M02 A299 RMK A01 T10121023  RH  093%=      5-min Rain = 0
KPVS 221015Z 06004KT M01/M02 A2989 RMK A01 T10101020  RH  094%=      5-min Rain = 0
KPVS 221020Z 05003KT M01/M02 A2989 RMK A01 T10081019  RH  094%=      5-min Rain = 0
KPVS 221025Z 05003KT M01/M02 A2989 RMK A01 T10071017  RH  094%=      5-min Rain = 0
KPVS 221030Z 07003KT M01/M02 A299 RMK A01 T10071018  RH  094%=      5-min Rain = 0
KPVS 221035Z 07005KT M01/M02 A299 RMK A01 T10071018  RH  094%=      5-min Rain = 0
KPVS 221040Z 08004KT M01/M02 A299 RMK A01 T10091019  RH  094%=      5-min Rain = 0
KPVS 221045Z 07003KT M01/M02 A299 RMK A01 T10081018  RH  094%=      5-min Rain = 0
KPVS 221050Z 05004KT M01/M02 A299 RMK A01 T10071016  RH  095%=      5-min Rain = 0
KPVS 221055Z 04004KT M01/M02 A299 RMK A01 T10061015  RH  094%=      5-min Rain = 0
KPVS 221100Z 05004KT M01/M02 A299 RMK A01 T10081017  RH  094%=      5-min Rain = 0
KPVS 221105Z 06005KT M01/M02 A299 RMK A01 T10071017  RH  094%=      5-min Rain = 0
KPVS 221110Z 06005KT M01/M02 A299 RMK A01 T10061015  RH  095%=      5-min Rain = 0
KPVS 221115Z 06004KT M01/M02 A299 RMK A01 T10071015  RH  095%=      5-min Rain = 0
KPVS 221120Z 06005KT M01/M02 A299 RMK A01 T10071015  RH  095%=      5-min Rain = 0
KPVS 221125Z 07005KT M01/M02 A299 RMK A01 T10081016  RH  096%=      5-min Rain = 0
KPVS 221130Z 08006KT M01/M02 A2989 RMK A01 T10091016  RH  096%=      5-min Rain = 0
KPVS 221135Z 09007KT M01/M01 A2989 RMK A01 T10091014  RH  097%=      5-min Rain = 0
KPVS 221140Z 09007KT M01/M01 A2988 RMK A01 T10061010  RH  098%=      5-min Rain = 0
KPVS 221145Z 09007KT M00/M01 A2988 RMK A01 T10031006  RH  099%=      5-min Rain = 0
KPVS 221150Z 09007KT M00/M00 A2988 RMK A01 T10021004  RH  099%=      5-min Rain = 0
KPVS 221155Z 09006KT 00/M00 A2988 RMK A01 T00011001  RH  100%=      5-min Rain = 0
KPVS 221200Z 10008KT 00/00 A2988 RMK A01 T00030001  RH  100%=      5-min Rain = 0
KPVS 221205Z 10008KT 01/00 A2988 RMK A01 T00050003  RH  100%=      5-min Rain = 0
KPVS 221210Z 10008KT 01/01 A2988 RMK A01 T00060005  RH  100%=      5-min Rain = 0
KPVS 221215Z 10008KT 01/01 A2988 RMK A01 T00070005  RH  100%=      5-min Rain = 0
KPVS 221220Z 10008KT 01/01 A2989 RMK A01 T00060005  RH  100%=      5-min Rain = 0
KPVS 221225Z 11007G12KT 01/01 A2989 RMK A01 T00060005  RH  100%=      5-min Rain = 0
KPVS 221230Z 11008KT 01/01 A2989 RMK A01 T00060005  RH  100%=      5-min Rain = 0
KPVS 221235Z 11008KT 01/01 A2989 RMK A01 T00060005  RH  100%=      5-min Rain = 0
KPVS 221240Z 11009KT 01/01 A299 RMK A01 T00060005  RH  100%=      5-min Rain = 0
KPVS 221245Z 11009KT 01/01 A299 RMK A01 T00070005  RH  100%=      5-min Rain = 0
KPVS 221250Z 11008KT 01/01 A299 RMK A01 T00070005  RH  100%=      5-min Rain = 0
KPVS 221255Z 11007G12KT 01/01 A2991 RMK A01 T00070006  RH  100%=      5-min Rain = 0
KPVS 221300Z 12006KT 01/01 A2991 RMK A01 T00080006  RH  100%=      5-min Rain = 0
KPVS 221305Z 12008KT 01/01 A2992 RMK A01 T00090007  RH  100%=      5-min Rain = 0
KPVS 221310Z 12007KT 01/01 A2992 RMK A01 T00090008  RH  100%=      5-min Rain = 0
KPVS 221315Z 12008KT 01/01 A2992 RMK A01 T00100008  RH  100%=      5-min Rain = 0
KPVS 221320Z 11009KT 01/01 A2992 RMK A01 T00100008  RH  100%=      5-min Rain = 0
KPVS 221325Z 10008KT 01/01 A2993 RMK A01 T00100009  RH  100%=      5-min Rain = 0
KPVS 221330Z 10008KT 01/01 A2992 RMK A01 T00110009  RH  100%=      5-min Rain = 0
KPVS 221335Z 10008G13KT 01/01 A2992 RMK A01 T00110010  RH  100%=      5-min Rain = 0
KPVS 221340Z 11010KT 01/01 A2992 RMK A01 T00120010  RH  100%=      5-min Rain = 0
KPVS 221345Z 11009KT 01/01 A2992 RMK A01 T00120011  RH  100%=      5-min Rain = 0
KPVS 221350Z 11008G13KT 01/01 A2992 RMK A01 T00130011  RH  100%=      5-min Rain = 0
KPVS 221355Z 11008KT 01/01 A2992 RMK A01 T00130011  RH  100%=      5-min Rain = 0
KPVS 221400Z 10009G16KT 01/01 A2992 RMK A01 T00130011  RH  100%=      5-min Rain = 0
KPVS 221405Z 10009KT 01/01 A2992 RMK A01 T00130011  RH  100%=      5-min Rain = 0
KPVS 221410Z 10008G13KT 01/01 A2992 RMK A01 T00130012  RH  100%=      5-min Rain = 0
KPVS 221415Z 10007KT 01/01 A2993 RMK A01 T00140012  RH  100%=      5-min Rain = 0
KPVS 221420Z 10009KT 01/01 A2993 RMK A01 T00140012  RH  100%=      5-min Rain = 0
KPVS 221425Z 09009KT 01/01 A2993 RMK A01 T00140012  RH  100%=      5-min Rain = 0
KPVS 221430Z 10009KT 01/01 A2993 RMK A01 T00130012  RH  100%=      5-min Rain = 0
KPVS 221435Z 09008KT 01/01 A2993 RMK A01 T00130011  RH  100%=      5-min Rain = 0
KPVS 221440Z 10008KT 01/01 A2993 RMK A01 T00130011  RH  100%=      5-min Rain = 0
KPVS 221445Z 09007KT 01/01 A2993 RMK A01 T00130012  RH  100%=      5-min Rain = 0
KPVS 221450Z 10008KT 01/01 A2993 RMK A01 T00130012  RH  100%=      5-min Rain = 0
KPVS 221455Z 10009KT 01/01 A2993 RMK A01 T00130012  RH  100%=      5-min Rain = 0
KPVS 221500Z 11007KT 02/01 A2994 RMK A01 T00150013  RH  100%=      5-min Rain = 0
KPVS 221505Z 10006KT 02/02 A2994 RMK A01 T00170015  RH  100%=      5-min Rain = 0
KPVS 221510Z 10006KT 02/02 A2994 RMK A01 T00180017  RH  100%=      5-min Rain = 0
KPVS 221515Z 11005KT 02/02 A2995 RMK A01 T00190018  RH  100%=      5-min Rain = 0
KPVS 221520Z 11004KT 02/02 A2995 RMK A01 T00210019  RH  100%=      5-min Rain = 0
KPVS 221525Z 11006KT 02/02 A2995 RMK A01 T00220020  RH  100%=      5-min Rain = 0
KPVS 221530Z 11007KT 02/02 A2995 RMK A01 T00230021  RH  100%=      5-min Rain = 0
KPVS 221535Z 11006KT 02/02 A2996 RMK A01 T00240023  RH  100%=      5-min Rain = 0
KPVS 221540Z 11008KT 02/02 A2995 RMK A01 T00240022  RH  100%=      5-min Rain = 0
KPVS 221545Z 11007KT 02/02 A2996 RMK A01 T00240022  RH  100%=      5-min Rain = 0
KPVS 221550Z 11007KT 02/02 A2996 RMK A01 T00240022  RH  100%=      5-min Rain = 0
KPVS 221555Z 11007KT 02/02 A2996 RMK A01 T00240022  RH  100%=      5-min Rain = 0
KPVS 221600Z 11005KT 03/02 A2996 RMK A01 T00250023  RH  100%=      5-min Rain = 0
KPVS 221605Z 11005KT 03/02 A2996 RMK A01 T00260024  RH  100%=      5-min Rain = 0
KPVS 221610Z 11006KT 03/02 A2996 RMK A01 T00260024  RH  100%=      5-min Rain = 0
KPVS 221615Z 11006KT 03/02 A2996 RMK A01 T00260024  RH  100%=      5-min Rain = 0
KPVS 221620Z 11004KT 03/03 A2996 RMK A01 T00270026  RH  100%=      5-min Rain = 0
KPVS 221625Z 11004KT 03/03 A2996 RMK A01 T00280026  RH  100%=      5-min Rain = 0
KPVS 221630Z 09004KT 03/03 A2996 RMK A01 T00290027  RH  100%=      5-min Rain = 0
KPVS 221635Z 10005KT 03/03 A2996 RMK A01 T00290027  RH  100%=      5-min Rain = 0
KPVS 221640Z 10004KT 03/03 A2995 RMK A01 T00300028  RH  100%=      5-min Rain = 0
KPVS 221645Z 12005KT 03/03 A2995 RMK A01 T00300029  RH  100%=      5-min Rain = 0
KPVS 221650Z 12005KT 03/03 A2995 RMK A01 T00310029  RH  100%=      5-min Rain = 0
KPVS 221655Z 12005KT 03/03 A2995 RMK A01 T00330031  RH  100%=      5-min Rain = 0
KPVS 221700Z 13004KT 03/03 A2995 RMK A01 T00340032  RH  100%=      5-min Rain = 0
KPVS 221705Z 12004KT 03/03 A2995 RMK A01 T00340033  RH  100%=      5-min Rain = 0
KPVS 221710Z 12004KT 04/03 A2995 RMK A01 T00360034  RH  100%=      5-min Rain = 0
KPVS 221715Z 13004KT 04/04 A2995 RMK A01 T00380036  RH  100%=      5-min Rain = 0
KPVS 221720Z 13005KT 04/04 A2995 RMK A01 T00380037  RH  100%=      5-min Rain = 0
KPVS 221725Z 13005KT 04/04 A2994 RMK A01 T00390038  RH  100%=      5-min Rain = 0
KPVS 221730Z 14005KT 04/04 A2994 RMK A01 T00410039  RH  100%=      5-min Rain = 0
KPVS 221735Z 12005KT 04/04 A2994 RMK A01 T00430041  RH  100%=      5-min Rain = 0
KPVS 221740Z 13005KT 04/04 A2994 RMK A01 T00440043  RH  100%=      5-min Rain = 0
KPVS 221745Z 13006KT 05/04 A2994 RMK A01 T00460044  RH  100%=      5-min Rain = 0
KPVS 221750Z 15007KT 05/05 A2993 RMK A01 T00480046  RH  100%=      5-min Rain = 0
KPVS 221755Z 16006KT 05/05 A2993 RMK A01 T00500048  RH  100%=      5-min Rain = 0
KPVS 221800Z 16005KT 05/05 A2993 RMK A01 T00510049  RH  100%=      5-min Rain = 0
KPVS 221805Z 16007KT 05/05 A2993 RMK A01 T00520050  RH  100%=      5-min Rain = 0
KPVS 221810Z 14005KT 05/05 A2993 RMK A01 T00530051  RH  100%=      5-min Rain = 0
KPVS 221815Z 16005KT 06/06 A2992 RMK A01 T00560055  RH  100%=      5-min Rain = 0
KPVS 221820Z 14006KT 06/06 A2992 RMK A01 T00580056  RH  100%=      5-min Rain = 0
KPVS 221825Z 18005KT 06/06 A2991 RMK A01 T00590055  RH  099%=      5-min Rain = 0
KPVS 221830Z 18006KT 06/05 A2991 RMK A01 T00600053  RH  096%=      5-min Rain = 0
KPVS 221835Z 17008KT 07/05 A2991 RMK A01 T00650054  RH  094%=      5-min Rain = 0
KPVS 221840Z 19007KT 07/05 A2991 RMK A01 T00660048  RH  089%=      5-min Rain = 0
KPVS 221845Z 19007KT 07/05 A299 RMK A01 T00670045  RH  087%=      5-min Rain = 0
KPVS 221850Z 16008KT 07/05 A299 RMK A01 T00690045  RH  086%=      5-min Rain = 0
KPVS 221855Z 17008KT 07/05 A2989 RMK A01 T00720045  RH  084%=      5-min Rain = 0
KPVS 221900Z 15006KT 07/04 A2989 RMK A01 T00730044  RH  083%=      5-min Rain = 0
KPVS 221905Z 16006KT 08/05 A2988 RMK A01 T00760046  RH  082%=      5-min Rain = 0
KPVS 221910Z 19005KT 08/05 A2988 RMK A01 T00770045  RH  081%=      5-min Rain = 0
KPVS 221915Z 16006KT 08/05 A2988 RMK A01 T00780046  RH  081%=      5-min Rain = 0
KPVS 221920Z 16006KT 08/05 A2987 RMK A01 T00820047  RH  080%=      5-min Rain = 0
KPVS 221925Z 14007KT 09/05 A2987 RMK A01 T00870050  RH  079%=      5-min Rain = 0
KPVS 221930Z 15005G10KT 10/05 A2987 RMK A01 T00950050  RH  075%=      5-min Rain = 0
KPVS 221935Z 17004KT 09/05 A2986 RMK A01 T00940047  RH  074%=      5-min Rain = 0
KPVS 221940Z 19005KT 10/05 A2986 RMK A01 T00950048  RH  074%=      5-min Rain = 0
KPVS 221945Z 14006KT 10/05 A2986 RMK A01 T00980050  RH  073%=      5-min Rain = 0
KPVS 221950Z 14008KT 10/05 A2985 RMK A01 T00970049  RH  073%=      5-min Rain = 0
KPVS 221955Z 16005KT 10/05 A2985 RMK A01 T00970050  RH  074%=      5-min Rain = 0
KPVS 222000Z 16006KT 10/05 A2985 RMK A01 T01000049  RH  072%=      5-min Rain = 0
KPVS 222005Z 15005KT 10/05 A2984 RMK A01 T01030050  RH  071%=      5-min Rain = 0
KPVS 222010Z 14004KT 11/05 A2984 RMK A01 T01050049  RH  069%=      5-min Rain = 0
KPVS 222015Z 15008KT 11/05 A2984 RMK A01 T01050049  RH  069%=      5-min Rain = 0
KPVS 222020Z 13004KT 11/05 A2983 RMK A01 T01060049  RH  069%=      5-min Rain = 0
KPVS 222025Z 13005G10KT 11/05 A2983 RMK A01 T01100051  RH  068%=      5-min Rain = 0
KPVS 222030Z 17006KT 11/05 A2983 RMK A01 T01130049  RH  066%=      5-min Rain = 0
KPVS 222035Z 15005KT 11/05 A2983 RMK A01 T01140048  RH  065%=      5-min Rain = 0
KPVS 222040Z 14005G10KT 11/05 A2982 RMK A01 T01140049  RH  065%=      5-min Rain = 0
KPVS 222045Z 16006KT 12/05 A2982 RMK A01 T01180048  RH  063%=      5-min Rain = 0
KPVS 222050Z 18005KT 12/05 A2982 RMK A01 T01190047  RH  062%=      5-min Rain = 0
KPVS 222055Z 16006KT 12/05 A2982 RMK A01 T01230047  RH  061%=      5-min Rain = 0
KPVS 222100Z 16006KT 12/05 A2981 RMK A01 T01240045  RH  059%=      5-min Rain = 0
KPVS 222105Z 16007KT 13/05 A2981 RMK A01 T01250045  RH  059%=      5-min Rain = 0
KPVS 222110Z 17006G11KT 13/05 A2981 RMK A01 T01260045  RH  058%=      5-min Rain = 0
KPVS 222115Z 14007KT 13/05 A298 RMK A01 T01270045  RH  058%=      5-min Rain = 0
KPVS 222120Z 14006G13KT 13/05 A298 RMK A01 T01290047  RH  058%=      5-min Rain = 0
KPVS 222125Z 15007KT 13/04 A298 RMK A01 T01330044  RH  056%=      5-min Rain = 0
KPVS 222130Z 13009G14KT 13/05 A298 RMK A01 T01320048  RH  057%=      5-min Rain = 0
KPVS 222135Z 12010KT 13/05 A298 RMK A01 T01290048  RH  059%=      5-min Rain = 0
KPVS 222140Z 12009KT 13/05 A298 RMK A01 T01290046  RH  058%=      5-min Rain = 0
KPVS 222145Z 13008G13KT 13/05 A298 RMK A01 T01310048  RH  058%=      5-min Rain = 0
KPVS 222150Z 12010KT 13/05 A298 RMK A01 T01290047  RH  058%=      5-min Rain = 0
KPVS 222155Z 12011KT 13/05 A2979 RMK A01 T01270046  RH  059%=      5-min Rain = 0
KPVS 222200Z 12010KT 13/05 A2979 RMK A01 T01250047  RH  060%=      5-min Rain = 0
KPVS 222205Z 11011KT 13/05 A2979 RMK A01 T01260048  RH  060%=      5-min Rain = 0
KPVS 222210Z 12011G17KT 13/05 A2979 RMK A01 T01250047  RH  060%=      5-min Rain = 0
KPVS 222215Z 13011G16KT 13/05 A2979 RMK A01 T01250047  RH  060%=      5-min Rain = 0
KPVS 222220Z 12011G16KT 12/05 A2979 RMK A01 T01240046  RH  060%=      5-min Rain = 0
KPVS 222225Z 12012G17KT 12/05 A2979 RMK A01 T01240049  RH  061%=      5-min Rain = 0
KPVS 222230Z 13011KT 12/05 A2979 RMK A01 T01230051  RH  062%=      5-min Rain = 0
KPVS 222235Z 13011G17KT 12/05 A2979 RMK A01 T01230051  RH  062%=      5-min Rain = 0
KPVS 222240Z 12012G19KT 12/05 A2979 RMK A01 T01200053  RH  064%=      5-min Rain = 0
KPVS 222245Z 11013G18KT 12/05 A2979 RMK A01 T01170052  RH  065%=      5-min Rain = 0
KPVS 222250Z 13013G19KT 11/05 A2979 RMK A01 T01140052  RH  067%=      5-min Rain = 0
KPVS 222255Z 12013G19KT 11/05 A2979 RMK A01 T01120052  RH  067%=      5-min Rain = 0
KPVS 222300Z 12012KT 11/05 A2979 RMK A01 T01100052  RH  068%=      5-min Rain = 0
KPVS 222305Z 12013G18KT 11/05 A2979 RMK A01 T01070051  RH  069%=      5-min Rain = 0
KPVS 222310Z 12012G17KT 11/05 A2979 RMK A01 T01050050  RH  070%=      5-min Rain = 0
KPVS 222315Z 12013G21KT 10/05 A2979 RMK A01 T01030050  RH  071%=      5-min Rain = 0
KPVS 222320Z 13012G18KT 10/05 A2978 RMK A01 T01020050  RH  071%=      5-min Rain = 0
KPVS 222325Z 12013G18KT 10/05 A2978 RMK A01 T00990050  RH  072%=      5-min Rain = 0
KPVS 222330Z 12013KT 10/05 A2979 RMK A01 T00990049  RH  072%=      5-min Rain = 0
KPVS 222335Z 13012KT 10/05 A2979 RMK A01 T00980049  RH  073%=      5-min Rain = 0
KPVS 222340Z 12012KT 10/05 A2979 RMK A01 T00970049  RH  073%=      5-min Rain = 0
KPVS 222345Z 12011G18KT 10/05 A2979 RMK A01 T00970050  RH  074%=      5-min Rain = 0
KPVS 222350Z 13012G17KT 10/05 A2979 RMK A01 T00950050  RH  075%=      5-min Rain = 0
KPVS 222355Z 14013G18KT 09/05 A2979 RMK A01 T00940050  RH  075%=      5-min Rain = 0
KPVS 230000Z 12012G17KT 09/05 A2979 RMK A01 T00910051  RH  077%=      5-min Rain = 0
KPVS 230005Z 13012KT 09/05 A2979 RMK A01 T00880051  RH  079%=      5-min Rain = 0
KPVS 230010Z 13012G17KT 09/05 A298 RMK A01 T00860051  RH  080%=      5-min Rain = 0
KPVS 230015Z 13011G16KT 08/05 A298 RMK A01 T00840050  RH  080%=      5-min Rain = 0
KPVS 230020Z 14010G16KT 08/05 A298 RMK A01 T00830048  RH  080%=      5-min Rain = 0
KPVS 230025Z 15011KT 08/05 A298 RMK A01 T00800047  RH  080%=      5-min Rain = 0
KPVS 230030Z 15010KT 08/05 A298 RMK A01 T00770045  RH  082%=      5-min Rain = 0
KPVS 230035Z 14009KT 07/05 A298 RMK A01 T00740045  RH  083%=      5-min Rain = 0
KPVS 230040Z 13009KT 07/04 A2979 RMK A01 T00730044  RH  083%=      5-min Rain = 0
KPVS 230045Z 12009KT 07/04 A2979 RMK A01 T00710043  RH  084%=      5-min Rain = 0
KPVS 230050Z 12009KT 07/04 A2979 RMK A01 T00690042  RH  084%=      5-min Rain = 0
KPVS 230055Z 11007KT 07/04 A2979 RMK A01 T00660041  RH  085%=      5-min Rain = 0
KPVS 230100Z 11008KT 07/04 A2979 RMK A01 T00650042  RH  087%=      5-min Rain = 0
KPVS 230105Z 11008KT 06/04 A2979 RMK A01 T00630042  RH  088%=      5-min Rain = 0
KPVS 230110Z 10007G12KT 06/04 A2979 RMK A01 T00610041  RH  088%=      5-min Rain = 0
KPVS 230115Z 10008KT 06/04 A2978 RMK A01 T00590040  RH  089%=      5-min Rain = 0
KPVS 230120Z 09008KT 06/04 A2978 RMK A01 T00570040  RH  090%=      5-min Rain = 0
KPVS 230125Z 09009G14KT 06/04 A2978 RMK A01 T00550039  RH  091%=      5-min Rain = 0
KPVS 230130Z 10009KT 05/04 A2979 RMK A01 T00540039  RH  091%=      5-min Rain = 0
KPVS 230135Z 11010G15KT 05/04 A2979 RMK A01 T00540039  RH  092%=      5-min Rain = 0
KPVS 230140Z 11009G14KT 05/04 A2978 RMK A01 T00540040  RH  092%=      5-min Rain = 0
KPVS 230145Z 11012G17KT 05/04 A2978 RMK A01 T00540040  RH  092%=      5-min Rain = 0
KPVS 230150Z 11015G20KT 05/04 A2978 RMK A01 T00540041  RH  092%=      5-min Rain = 0
KPVS 230155Z 11013G18KT 05/04 A2978 RMK A01 T00530040  RH  093%=      5-min Rain = 0
KPVS 230200Z 11012KT 05/04 A2977 RMK A01 T00530040  RH  093%=      5-min Rain = 0
KPVS 230205Z 10009G14KT 05/04 A2977 RMK A01 T00520040  RH  093%=      5-min Rain = 0
KPVS 230210Z 11012G18KT 05/04 A2977 RMK A01 T00520040  RH  093%=      5-min Rain = 0
KPVS 230215Z 11014G21KT 05/04 A2977 RMK A01 T00510039  RH  093%=      5-min Rain = 0
KPVS 230220Z 11010G16KT 05/04 A2977 RMK A01 T00510039  RH  093%=      5-min Rain = 0
KPVS 230225Z 10013G18KT 05/04 A2976 RMK A01 T00510039  RH  094%=      5-min Rain = 0
KPVS 230230Z 10012G17KT 05/04 A2976 RMK A01 T00510040  RH  094%=      5-min Rain = 0
KPVS 230235Z 09013G18KT 05/04 A2975 RMK A01 T00510039  RH  094%=      5-min Rain = 0
KPVS 230240Z 09014G19KT 05/04 A2975 RMK A01 T00500039  RH  094%=      5-min Rain = 0
KPVS 230245Z 10013G19KT 05/04 A2976 RMK A01 T00510040  RH  094%=      5-min Rain = 0
KPVS 230250Z 11011G17KT 05/04 A2976 RMK A01 T00510041  RH  094%=      5-min Rain = 0
KPVS 230255Z 11013G21KT 05/04 A2977 RMK A01 T00520041  RH  094%=      5-min Rain = 0
KPVS 230300Z 11012G17KT 05/04 A2977 RMK A01 T00520042  RH  094%=      5-min Rain = 0
KPVS 230305Z 10012G19KT 05/04 A2976 RMK A01 T00520042  RH  095%=      5-min Rain = 0
KPVS 230310Z 11011G17KT 05/04 A2976 RMK A01 T00520044  RH  095%=      5-min Rain = 0
KPVS 230315Z 11013G18KT 05/05 A2976 RMK A01 T00520045  RH  096%=      5-min Rain = 0
KPVS 230320Z 11011G18KT 05/05 A2976 RMK A01 T00520046  RH  097%=      5-min Rain = 0
KPVS 230325Z 11011G16KT 05/05 A2976 RMK A01 T00520047  RH  098%=      5-min Rain = 0
KPVS 230330Z 11010G15KT 05/05 A2976 RMK A01 T00520048  RH  099%=      5-min Rain = 0
KPVS 230335Z 10011G17KT 05/05 A2976 RMK A01 T00520049  RH  099%=      5-min Rain = 0
KPVS 230340Z 10011KT 05/05 A2976 RMK A01 T00520049  RH  100%=      5-min Rain = 0
KPVS 230345Z 10010G15KT 05/05 A2976 RMK A01 T00520050  RH  100%=      5-min Rain = 0
KPVS 230350Z 10010KT 05/05 A2975 RMK A01 T00520050  RH  100%=      5-min Rain = 0
KPVS 230355Z 09008G13KT 05/05 A2975 RMK A01 T00520050  RH  100%=      5-min Rain = 0
KPVS 230400Z 09008G13KT 05/05 A2975 RMK A01 T00520050  RH  100%=      5-min Rain = 0
KPVS 230405Z 09007KT 05/05 A2976 RMK A01 T00520050  RH  100%=      5-min Rain = 0
KPVS 230410Z 09008KT 05/05 A2976 RMK A01 T00520050  RH  100%=      5-min Rain = 0
KPVS 230415Z 09009G14KT 05/05 A2975 RMK A01 T00520050  RH  100%=      5-min Rain = 0
KPVS 230420Z 09009KT 05/05 A2975 RMK A01 T00520050  RH  100%=      5-min Rain = 0
KPVS 230425Z 09009G14KT 05/05 A2975 RMK A01 T00510050  RH  100%=      5-min Rain = 0
KPVS 230430Z 09008G13KT 05/05 A2975 RMK A01 T00510049  RH  100%=      5-min Rain = 0
KPVS 230435Z 10007G12KT 05/05 A2976 RMK A01 T00510049  RH  100%=      5-min Rain = 0
KPVS 230440Z 11006KT 05/05 A2976 RMK A01 T00510049  RH  100%=      5-min Rain = 0
KPVS 230445Z 11007KT 05/05 A2976 RMK A01 T00510049  RH  100%=      5-min Rain = 0
KPVS 230450Z 11007KT 05/05 A2976 RMK A01 T00510049  RH  100%=      5-min Rain = 0
KPVS 230455Z 10006KT 05/05 A2976 RMK A01 T00510049  RH  100%=      5-min Rain = 0
KPVS 230500Z 11005KT 05/05 A2976 RMK A01 T00510049  RH  100%=      5-min Rain = 0
KPVS 230505Z 11007KT 05/05 A2976 RMK A01 T00510049  RH  100%=      5-min Rain = 0
KPVS 230510Z 11006KT 05/05 A2975 RMK A01 T00510049  RH  100%=      5-min Rain = 0
KPVS 230515Z 10006KT 05/05 A2975 RMK A01 T00510049  RH  100%=      5-min Rain = 0
KPVS 230520Z 10006KT 05/05 A2974 RMK A01 T00510049  RH  100%=      5-min Rain = 0
KPVS 230525Z 09007KT 05/05 A2973 RMK A01 T00510049  RH  100%=      5-min Rain = 0
KPVS 230530Z 10007KT 05/05 A2973 RMK A01 T00510049  RH  100%=      5-min Rain = 0
KPVS 230535Z 08009KT 05/05 A2972 RMK A01 T00510049  RH  100%=      5-min Rain = 0
KPVS 230540Z 09008KT 05/05 A2972 RMK A01 T00510049  RH  100%=      5-min Rain = 0
KPVS 230545Z 09009KT 05/05 A2971 RMK A01 T00500049  RH  100%=      5-min Rain = 0
KPVS 230550Z 09010KT 05/05 A297 RMK A01 T00500048  RH  100%=      5-min Rain = 0
KPVS 230555Z 08011KT 05/05 A2969 RMK A01 T00500048  RH  100%=      5-min Rain = 0

Page generated in 0.0329 seconds.